Map

Track Data

SID SEASON NUMBER BASIN SUBBASIN NAME ISO_TIME NATURE LAT LON WMO_WIND WMO_PRES WMO_AGENCY TRACK_TYPE DIST2LAND LANDFALL IFLAG USA_AGENCY USA_ATCF_ID USA_LAT USA_LON USA_RECORD USA_STATUS USA_WIND USA_PRES USA_SSHS USA_R34_NE USA_R34_SE USA_R34_SW USA_R34_NW USA_R50_NE USA_R50_SE USA_R50_SW USA_R50_NW USA_R64_NE USA_R64_SE USA_R64_SW USA_R64_NW USA_POCI USA_ROCI USA_RMW USA_EYE TOKYO_LAT TOKYO_LON TOKYO_GRADE TOKYO_WIND TOKYO_PRES TOKYO_R50_DIR TOKYO_R50_LONG TOKYO_R50_SHORT TOKYO_R30_DIR TOKYO_R30_LONG TOKYO_R30_SHORT TOKYO_LAND CMA_LAT CMA_LON CMA_CAT CMA_WIND CMA_PRES HKO_LAT HKO_LON HKO_CAT HKO_WIND HKO_PRES NEWDELHI_LAT NEWDELHI_LON NEWDELHI_GRADE NEWDELHI_WIND NEWDELHI_PRES NEWDELHI_CI NEWDELHI_DP NEWDELHI_POCI REUNION_LAT REUNION_LON REUNION_TYPE REUNION_WIND REUNION_PRES REUNION_TNUM REUNION_CI REUNION_RMW REUNION_R34_NE REUNION_R34_SE REUNION_R34_SW REUNION_R34_NW REUNION_R50_NE REUNION_R50_SE REUNION_R50_SW REUNION_R50_NW REUNION_R64_NE REUNION_R64_SE REUNION_R64_SW REUNION_R64_NW BOM_LAT BOM_LON BOM_TYPE BOM_WIND BOM_PRES BOM_TNUM BOM_CI BOM_RMW BOM_R34_NE BOM_R34_SE BOM_R34_SW BOM_R34_NW BOM_R50_NE BOM_R50_SE BOM_R50_SW BOM_R50_NW BOM_R64_NE BOM_R64_SE BOM_R64_SW BOM_R64_NW BOM_ROCI BOM_POCI BOM_EYE BOM_POS_METHOD BOM_PRES_METHOD NADI_LAT NADI_LON NADI_CAT NADI_WIND NADI_PRES WELLINGTON_LAT WELLINGTON_LON WELLINGTON_WIND WELLINGTON_PRES DS824_LAT DS824_LON DS824_STAGE DS824_WIND DS824_PRES TD9636_LAT TD9636_LON TD9636_STAGE TD9636_WIND TD9636_PRES TD9635_LAT TD9635_LON TD9635_WIND TD9635_PRES TD9635_ROCI NEUMANN_LAT NEUMANN_LON NEUMANN_CLASS NEUMANN_WIND NEUMANN_PRES MLC_LAT MLC_LON MLC_CLASS MLC_WIND MLC_PRES USA_GUST BOM_GUST BOM_GUST_PER REUNION_GUST REUNION_GUST_PER USA_SEAHGT USA_SEARAD_NE USA_SEARAD_SE USA_SEARAD_SW USA_SEARAD_NW STORM_SPEED STORM_DIR
1939222N14155 1939 49 WP MM NOT_NAMED 1939-08-09 21:00:00 NR 14.0000 155.300 main 1932 1930 __________O___ -1 14.0000 155.300 4 7 307
1939222N14155 1939 49 WP MM NOT_NAMED 1939-08-10 00:00:00 NR 14.2124 155.015 main 1946 1946 __________P___ -1 14.2124 155.015 4 7 308
1939222N14155 1939 49 WP MM NOT_NAMED 1939-08-10 03:00:00 NR 14.4398 154.714 main 1961 1961 __________P___ -1 14.4398 154.714 4 8 308
1939222N14155 1939 49 WP MM NOT_NAMED 1939-08-10 06:00:00 NR 14.6973 154.381 main 1987 1985 __________P___ -1 14.6973 154.381 4 9 309
1939222N14155 1939 49 WP MM NOT_NAMED 1939-08-10 09:00:00 NR 15.0000 154.000 main 2012 2012 __________O___ -1 15.0000 154.000 4 10 310
1939222N14155 1939 49 WP MM NOT_NAMED 1939-08-10 12:00:00 NR 15.3542 153.564 main 2049 2047 __________P___ -1 15.3542 153.564 4 11 310
1939222N14155 1939 49 WP MM NOT_NAMED 1939-08-10 15:00:00 NR 15.7307 153.106 main 2075 2075 __________P___ -1 15.7307 153.106 4 11 311
1939222N14155 1939 49 WP MM NOT_NAMED 1939-08-10 18:00:00 NR 16.0917 152.670 main 2115 2114 __________P___ -1 16.0917 152.670 4 10 311
1939222N14155 1939 49 WP MM NOT_NAMED 1939-08-10 21:00:00 NR 16.4000 152.300 main 2141 2141 __________O___ -1 16.4000 152.300 4 8 311
1939222N14155 1939 49 WP MM NOT_NAMED 1939-08-11 00:00:00 NR 16.5864 152.084 main 2157 2154 __________P___ -1 16.5864 152.084 4 5 312
1939222N14155 1939 49 WP MM NOT_NAMED 1939-08-11 03:00:00 NR 16.7214 151.933 main 2163 2163 __________P___ -1 16.7214 151.933 4 4 313
1939222N14155 1939 49 WP MM NOT_NAMED 1939-08-11 06:00:00 NR 16.8458 151.791 main 2171 2171 __________P___ -1 16.8458 151.791 4 4 311
1939222N14155 1939 49 WP MM NOT_NAMED 1939-08-11 09:00:00 NR 17.0000 151.600 main 2188 2186 __________O___ -1 17.0000 151.600 4 7 305
1939222N14155 1939 49 WP MM NOT_NAMED 1939-08-11 12:00:00 NR 17.2359 151.198 main 2201 2201 __________P___ -1 17.2359 151.198 4 10 302
1939222N14155 1939 49 WP MM NOT_NAMED 1939-08-11 15:00:00 NR 17.5062 150.754 main 2222 2173 __________P___ -1 17.5062 150.754 4 10 305
1939222N14155 1939 49 WP MM NOT_NAMED 1939-08-11 18:00:00 NR 17.7983 150.358 main 2173 2129 __________P___ -1 17.7983 150.358 4 9 314
1939222N14155 1939 49 WP MM NOT_NAMED 1939-08-11 21:00:00 NR 18.1000 150.100 main 2129 2104 __________O___ -1 18.1000 150.100 4 6 329
1939222N14155 1939 49 WP MM NOT_NAMED 1939-08-12 00:00:00 NR 18.3509 150.015 main 2094 2079 __________P___ -1 18.3509 150.015 4 5 358
1939222N14155 1939 49 WP MM NOT_NAMED 1939-08-12 03:00:00 NR 18.6155 150.087 main 2079 2059 __________P___ -1 18.6155 150.087 4 6 27
1939222N14155 1939 49 WP MM NOT_NAMED 1939-08-12 06:00:00 NR 18.9225 150.316 main 2059 2034 __________P___ -1 18.9225 150.316 4 9 40
1939222N14155 1939 49 WP MM NOT_NAMED 1939-08-12 09:00:00 NR 19.3000 150.700 main 2040 2017 __________O___ -1 19.3000 150.700 4 13 45
1939222N14155 1939 49 WP MM NOT_NAMED 1939-08-12 12:00:00 NR 19.8088 151.265 main 2023 2002 __________P___ -1 19.8088 151.265 4 16 48
1939222N14155 1939 49 WP MM NOT_NAMED 1939-08-12 15:00:00 NR 20.3808 151.970 main 2003 1990 __________P___ -1 20.3808 151.970 4 18 50
1939222N14155 1939 49 WP MM NOT_NAMED 1939-08-12 18:00:00 NR 20.9621 152.715 main 1987 1978 __________P___ -1 20.9621 152.715 4 17 50
1939222N14155 1939 49 WP MM NOT_NAMED 1939-08-12 21:00:00 NR 21.5000 153.400 main 1984 1981 __________O___ -1 21.5000 153.400 4 14 53
1939222N14155 1939 49 WP MM NOT_NAMED 1939-08-13 00:00:00 NR 21.7987 153.927 main 1989 1986 __________P___ -1 21.7987 153.927 4 11 58
1939222N14155 1939 49 WP MM NOT_NAMED 1939-08-13 03:00:00 NR 22.0694 154.369 main 1995 1990 __________P___ -1 22.0694 154.369 4 10 50
1939222N14155 1939 49 WP MM NOT_NAMED 1939-08-13 06:00:00 NR 22.4304 154.726 main 1990 1960 __________P___ -1 22.4304 154.726 4 11 32
1939222N14155 1939 49 WP MM NOT_NAMED 1939-08-13 09:00:00 NR 23.0000 155.000 main 1960 1900 __________O___ -1 23.0000 155.000 4 17 18
1939222N14155 1939 49 WP MM NOT_NAMED 1939-08-13 12:00:00 NR 24.0156 155.297 main 1900 1819 __________P___ -1 24.0156 155.297 4 23 12
1939222N14155 1939 49 WP MM NOT_NAMED 1939-08-13 15:00:00 NR 25.2313 155.506 main 1819 1737 __________P___ -1 25.2313 155.506 4 25 6
1939222N14155 1939 49 WP MM NOT_NAMED 1939-08-13 18:00:00 NR 26.4814 155.587 main 1730 1653 __________P___ -1 26.4814 155.587 4 24 0
1939222N14155 1939 49 WP MM NOT_NAMED 1939-08-13 21:00:00 NR 27.6000 155.500 main 1646 1576 __________O___ -1 27.6000 155.500 4 19 350
1939222N14155 1939 49 WP MM NOT_NAMED 1939-08-14 00:00:00 NR 28.2932 155.217 main 1576 1512 __________P___ -1 28.2932 155.217 4 14 333
1939222N14155 1939 49 WP MM NOT_NAMED 1939-08-14 03:00:00 NR 28.8453 154.765 main 1512 1433 __________P___ -1 28.8453 154.765 4 14 321
1939222N14155 1939 49 WP MM NOT_NAMED 1939-08-14 06:00:00 NR 29.3746 154.205 main 1427 1342 __________P___ -1 29.3746 154.205 4 15 319
1939222N14155 1939 49 WP MM NOT_NAMED 1939-08-14 09:00:00 NR 30.0000 153.600 main 1342 1242 __________O___ -1 30.0000 153.600 4 19 325
1939222N14155 1939 49 WP MM NOT_NAMED 1939-08-14 12:00:00 NR 30.9273 152.971 main 1242 1132 __________P___ -1 30.9273 152.971 4 23 331
1939222N14155 1939 49 WP MM NOT_NAMED 1939-08-14 15:00:00 NR 31.9578 152.314 main 1127 1033 __________P___ -1 31.9578 152.314 4 24 333
1939222N14155 1939 49 WP MM NOT_NAMED 1939-08-14 18:00:00 NR 33.0090 151.699 main 1033 956 __________P___ -1 33.0090 151.699 4 23 335
1939222N14155 1939 49 WP MM NOT_NAMED 1939-08-14 21:00:00 NR 34.0000 151.200 main 956 930 __________O___ -1 34.0000 151.200 4 18 343
1939222N14155 1939 49 WP MM NOT_NAMED 1939-08-15 00:00:00 NR 34.7357 151.047 main 921 902 __________P___ -1 34.7357 151.047 4 14 354
1939222N14155 1939 49 WP MM NOT_NAMED 1939-08-15 03:00:00 NR 35.4173 151.006 main 902 858 __________P___ -1 35.4173 151.006 4 14 355
1939222N14155 1939 49 WP MM NOT_NAMED 1939-08-15 06:00:00 NR 36.1404 150.913 main 858 794 __________P___ -1 36.1404 150.913 4 16 348
1939222N14155 1939 49 WP MM NOT_NAMED 1939-08-15 09:00:00 NR 37.0000 150.600 main 790 663 __________O___ -1 37.0000 150.600 4 23 337
1939222N14155 1939 49 WP MM NOT_NAMED 1939-08-15 12:00:00 NR 38.2466 149.790 main 663 494 __________P___ -1 38.2466 149.790 4 30 330
1939222N14155 1939 49 WP MM NOT_NAMED 1939-08-15 15:00:00 NR 39.6077 148.714 main 480 318 __________P___ -1 39.6077 148.714 4 32 327
1939222N14155 1939 49 WP MM NOT_NAMED 1939-08-15 18:00:00 NR 40.9136 147.501 main 304 152 __________P___ -1 40.9136 147.501 4 30 323
1939222N14155 1939 49 WP MM NOT_NAMED 1939-08-15 21:00:00 NR 42.0000 146.300 main 148 46 __________O___ -1 42.0000 146.300 4 24 318
1939222N14155 1939 49 WP MM NOT_NAMED 1939-08-16 00:00:00 NR 42.7107 145.318 main 41 0 __________P___ -1 42.7107 145.318 4 18 311
1939222N14155 1939 49 WP MM NOT_NAMED 1939-08-16 03:00:00 NR 43.1899 144.410 main 0 0 __________P___ -1 43.1899 144.410 4 15 302
1939222N14155 1939 49 WP MM NOT_NAMED 1939-08-16 06:00:00 NR 43.4994 143.574 main 0 0 __________P___ -1 43.4994 143.574 4 13 294
1939222N14155 1939 49 WP MM NOT_NAMED 1939-08-16 09:00:00 NR 43.7000 142.800 main 0 0 __________O___ -1 43.7000 142.800 4 12 287
1939222N14155 1939 49 WP MM NOT_NAMED 1939-08-16 12:00:00 NR 43.8526 141.954 main 0 0 __________P___ -1 43.8526 141.954 4 12 281
1939222N14155 1939 49 WP MM NOT_NAMED 1939-08-16 15:00:00 NR 43.9227 141.186 main 23 23 __________P___ -1 43.9227 141.186 4 10 277
1939222N14155 1939 49 WP MM NOT_NAMED 1939-08-16 18:00:00 NR 43.9813 140.551 main 65 65 __________P___ -1 43.9813 140.551 4 8 283
1939222N14155 1939 49 WP MM NOT_NAMED 1939-08-16 21:00:00 NR 44.1000 140.100 main 90 90 __________O___ -1 44.1000 140.100 4 6 306
1939222N14155 1939 49 WP MM NOT_NAMED 1939-08-17 00:00:00 NR 44.3269 139.890 main 115 115 __________P___ -1 44.3269 139.890 4 6 342
1939222N14155 1939 49 WP MM NOT_NAMED 1939-08-17 03:00:00 NR 44.6324 139.859 main 138 134 __________P___ -1 44.6324 139.859 4 7 0
1939222N14155 1939 49 WP MM NOT_NAMED 1939-08-17 06:00:00 NR 45.0218 139.924 main 134 124 __________P___ -1 45.0218 139.924 4 9 6
1939222N14155 1939 49 WP MM NOT_NAMED 1939-08-17 09:00:00 NR 45.5000 140.000 main 124 124 __________O___ -1 45.5000 140.000 4 10 4
1939222N14155 1939 49 WP MM NOT_NAMED 1939-08-17 12:00:00 NR 46.0676 140.019 main 139 100 __________P___ -1 46.0676 140.019 4 12 0
1939222N14155 1939 49 WP MM NOT_NAMED 1939-08-17 15:00:00 NR 46.7059 139.980 main 100 60 __________P___ -1 46.7059 139.980 4 13 357
1939222N14155 1939 49 WP MM NOT_NAMED 1939-08-17 18:00:00 NR 47.3913 139.901 main 60 7 __________P___ -1 47.3913 139.901 4 14 355
1939222N14155 1939 49 WP MM NOT_NAMED 1939-08-17 21:00:00 NR 48.1000 139.800 main 7 __________O___ -1 48.1000 139.800 4 14 354

Digital Typhoon Data and Search

About IBTrACS Database

This database is a web-friendly format of International Best Track Archive for Climate Stewardship (IBTrACS), a global best track data archive curated by NOAA dating back to 1842.

Updated: 2021-12-01